sensor_id;sensor_type;location;lat;lon;timestamp;P1;durP1;ratioP1;P2;durP2;ratioP2
22094;SDS011;24083;55.670;37.568;2023-01-30T00:09:55;9.18;;;5.60;;
22094;SDS011;24083;55.670;37.568;2023-01-30T00:12:21;7.93;;;4.22;;
22094;SDS011;24083;55.670;37.568;2023-01-30T00:14:48;10.48;;;5.90;;
22094;SDS011;24083;55.670;37.568;2023-01-30T00:18:06;9.52;;;5.45;;
22094;SDS011;24083;55.670;37.568;2023-01-30T00:23:24;11.82;;;5.95;;
22094;SDS011;24083;55.670;37.568;2023-01-30T00:25:50;8.48;;;4.22;;
22094;SDS011;24083;55.670;37.568;2023-01-30T00:28:15;7.93;;;3.35;;
22094;SDS011;24083;55.670;37.568;2023-01-30T00:30:41;7.50;;;4.78;;
22094;SDS011;24083;55.670;37.568;2023-01-30T00:33:07;6.88;;;3.97;;
22094;SDS011;24083;55.670;37.568;2023-01-30T00:35:33;9.00;;;5.40;;
22094;SDS011;24083;55.670;37.568;2023-01-30T00:37:59;7.30;;;4.38;;
22094;SDS011;24083;55.670;37.568;2023-01-30T00:40:25;12.38;;;6.78;;
22094;SDS011;24083;55.670;37.568;2023-01-30T00:42:52;10.73;;;6.30;;
22094;SDS011;24083;55.670;37.568;2023-01-30T00:45:37;9.68;;;4.47;;
22094;SDS011;24083;55.670;37.568;2023-01-30T00:48:23;10.90;;;5.47;;
22094;SDS011;24083;55.670;37.568;2023-01-30T00:50:49;10.93;;;4.63;;
22094;SDS011;24083;55.670;37.568;2023-01-30T00:53:19;8.20;;;4.50;;
22094;SDS011;24083;55.670;37.568;2023-01-30T00:55:44;11.32;;;5.22;;
22094;SDS011;24083;55.670;37.568;2023-01-30T00:58:10;12.10;;;6.10;;
22094;SDS011;24083;55.670;37.568;2023-01-30T01:00:37;10.82;;;6.15;;
22094;SDS011;24083;55.670;37.568;2023-01-30T01:03:03;12.48;;;7.07;;
22094;SDS011;24083;55.670;37.568;2023-01-30T01:05:29;14.10;;;4.93;;
22094;SDS011;24083;55.670;37.568;2023-01-30T01:07:55;10.57;;;5.45;;
22094;SDS011;24083;55.670;37.568;2023-01-30T01:10:22;11.30;;;5.60;;
22094;SDS011;24083;55.670;37.568;2023-01-30T01:12:48;15.48;;;7.70;;
22094;SDS011;24083;55.670;37.568;2023-01-30T01:15:14;15.30;;;7.13;;
22094;SDS011;24083;55.670;37.568;2023-01-30T01:17:40;8.52;;;4.18;;
22094;SDS011;24083;55.670;37.568;2023-01-30T01:20:09;10.50;;;5.78;;
22094;SDS011;24083;55.670;37.568;2023-01-30T01:25:26;13.05;;;6.25;;
22094;SDS011;24083;55.670;37.568;2023-01-30T01:27:52;14.45;;;7.88;;
22094;SDS011;24083;55.670;37.568;2023-01-30T01:30:18;13.27;;;7.00;;
22094;SDS011;24083;55.670;37.568;2023-01-30T01:32:44;15.80;;;9.13;;
22094;SDS011;24083;55.670;37.568;2023-01-30T01:35:10;7.88;;;3.75;;
22094;SDS011;24083;55.670;37.568;2023-01-30T01:37:36;15.00;;;6.55;;
22094;SDS011;24083;55.670;37.568;2023-01-30T01:40:03;11.30;;;6.25;;
22094;SDS011;24083;55.670;37.568;2023-01-30T01:42:48;10.80;;;5.93;;
22094;SDS011;24083;55.670;37.568;2023-01-30T01:45:17;7.82;;;4.47;;
22094;SDS011;24083;55.670;37.568;2023-01-30T01:47:55;8.52;;;4.63;;
22094;SDS011;24083;55.670;37.568;2023-01-30T01:53:10;13.90;;;7.40;;
22094;SDS011;24083;55.670;37.568;2023-01-30T01:55:39;11.63;;;7.15;;
22094;SDS011;24083;55.670;37.568;2023-01-30T01:58:07;13.55;;;7.25;;
22094;SDS011;24083;55.670;37.568;2023-01-30T02:00:34;9.43;;;4.57;;
22094;SDS011;24083;55.670;37.568;2023-01-30T02:03:07;10.02;;;4.70;;
22094;SDS011;24083;55.670;37.568;2023-01-30T02:05:37;19.10;;;8.02;;
22094;SDS011;24083;55.670;37.568;2023-01-30T02:13:47;7.85;;;4.35;;
22094;SDS011;24083;55.670;37.568;2023-01-30T02:16:14;19.37;;;11.50;;
22094;SDS011;24083;55.670;37.568;2023-01-30T02:18:41;11.05;;;6.15;;
22094;SDS011;24083;55.670;37.568;2023-01-30T02:36:51;13.13;;;7.22;;
22094;SDS011;24083;55.670;37.568;2023-01-30T02:44:19;14.27;;;8.13;;
22094;SDS011;24083;55.670;37.568;2023-01-30T02:46:55;9.90;;;5.47;;
22094;SDS011;24083;55.670;37.568;2023-01-30T02:49:26;10.23;;;6.22;;
22094;SDS011;24083;55.670;37.568;2023-01-30T03:11:08;9.30;;;3.50;;
22094;SDS011;24083;55.670;37.568;2023-01-30T03:16:11;10.05;;;6.13;;
22094;SDS011;24083;55.670;37.568;2023-01-30T03:18:41;12.48;;;7.13;;
22094;SDS011;24083;55.670;37.568;2023-01-30T03:21:13;11.70;;;7.13;;
22094;SDS011;24083;55.670;37.568;2023-01-30T03:23:48;12.88;;;8.00;;
22094;SDS011;24083;55.670;37.568;2023-01-30T03:26:19;9.70;;;4.90;;
22094;SDS011;24083;55.670;37.568;2023-01-30T03:28:51;15.43;;;7.80;;
22094;SDS011;24083;55.670;37.568;2023-01-30T03:31:18;13.75;;;6.95;;
22094;SDS011;24083;55.670;37.568;2023-01-30T03:33:44;12.35;;;7.90;;
22094;SDS011;24083;55.670;37.568;2023-01-30T03:39:02;9.75;;;4.60;;
22094;SDS011;24083;55.670;37.568;2023-01-30T03:41:28;9.48;;;5.32;;
22094;SDS011;24083;55.670;37.568;2023-01-30T03:43:55;12.40;;;6.28;;
22094;SDS011;24083;55.670;37.568;2023-01-30T03:46:20;11.77;;;7.22;;
22094;SDS011;24083;55.670;37.568;2023-01-30T03:48:47;13.25;;;8.55;;
22094;SDS011;24083;55.670;37.568;2023-01-30T03:51:12;16.63;;;8.18;;
22094;SDS011;24083;55.670;37.568;2023-01-30T03:53:39;10.55;;;5.85;;
22094;SDS011;24083;55.670;37.568;2023-01-30T03:56:05;9.45;;;5.10;;
22094;SDS011;24083;55.670;37.568;2023-01-30T03:58:33;12.45;;;7.40;;
22094;SDS011;24083;55.670;37.568;2023-01-30T04:01:22;14.30;;;7.70;;
22094;SDS011;24083;55.670;37.568;2023-01-30T04:03:47;8.90;;;5.15;;
22094;SDS011;24083;55.670;37.568;2023-01-30T04:06:14;11.65;;;6.95;;
22094;SDS011;24083;55.670;37.568;2023-01-30T04:08:40;8.73;;;5.35;;
22094;SDS011;24083;55.670;37.568;2023-01-30T04:11:09;11.65;;;7.63;;
22094;SDS011;24083;55.670;37.568;2023-01-30T04:13:34;8.35;;;4.88;;
22094;SDS011;24083;55.670;37.568;2023-01-30T04:16:16;7.47;;;4.80;;
22094;SDS011;24083;55.670;37.568;2023-01-30T04:19:06;8.15;;;4.78;;
22094;SDS011;24083;55.670;37.568;2023-01-30T04:21:33;6.57;;;3.65;;
22094;SDS011;24083;55.670;37.568;2023-01-30T04:23:59;12.75;;;5.75;;
22094;SDS011;24083;55.670;37.568;2023-01-30T04:26:32;9.82;;;6.40;;
22094;SDS011;24083;55.670;37.568;2023-01-30T04:28:58;13.63;;;7.85;;
22094;SDS011;24083;55.670;37.568;2023-01-30T04:31:28;8.05;;;4.45;;
22094;SDS011;24083;55.670;37.568;2023-01-30T04:34:02;8.77;;;4.57;;
22094;SDS011;24083;55.670;37.568;2023-01-30T04:36:29;8.23;;;5.13;;
22094;SDS011;24083;55.670;37.568;2023-01-30T04:38:58;9.73;;;5.70;;
22094;SDS011;24083;55.670;37.568;2023-01-30T04:41:25;8.48;;;5.38;;
22094;SDS011;24083;55.670;37.568;2023-01-30T04:43:56;10.00;;;5.22;;
22094;SDS011;24083;55.670;37.568;2023-01-30T04:46:25;10.27;;;5.30;;
22094;SDS011;24083;55.670;37.568;2023-01-30T04:48:51;10.70;;;6.85;;
22094;SDS011;24083;55.670;37.568;2023-01-30T04:51:17;12.93;;;7.38;;
22094;SDS011;24083;55.670;37.568;2023-01-30T04:53:42;11.82;;;6.78;;
22094;SDS011;24083;55.670;37.568;2023-01-30T04:56:09;10.70;;;4.70;;
22094;SDS011;24083;55.670;37.568;2023-01-30T04:58:34;11.15;;;6.45;;
22094;SDS011;24083;55.670;37.568;2023-01-30T05:01:20;9.05;;;5.75;;
22094;SDS011;24083;55.670;37.568;2023-01-30T05:03:50;10.35;;;6.55;;
22094;SDS011;24083;55.670;37.568;2023-01-30T05:06:20;12.05;;;6.68;;
22094;SDS011;24083;55.670;37.568;2023-01-30T05:08:48;8.15;;;4.57;;
22094;SDS011;24083;55.670;37.568;2023-01-30T05:11:13;14.30;;;7.82;;
22094;SDS011;24083;55.670;37.568;2023-01-30T05:13:39;11.57;;;7.07;;
22094;SDS011;24083;55.670;37.568;2023-01-30T05:16:09;12.63;;;7.22;;
22094;SDS011;24083;55.670;37.568;2023-01-30T05:18:35;11.13;;;6.90;;
22094;SDS011;24083;55.670;37.568;2023-01-30T05:21:14;12.65;;;7.82;;
22094;SDS011;24083;55.670;37.568;2023-01-30T05:23:40;9.60;;;5.75;;
22094;SDS011;24083;55.670;37.568;2023-01-30T05:26:06;9.57;;;6.40;;
22094;SDS011;24083;55.670;37.568;2023-01-30T05:28:39;12.40;;;7.88;;
22094;SDS011;24083;55.670;37.568;2023-01-30T05:31:09;6.82;;;3.92;;
22094;SDS011;24083;55.670;37.568;2023-01-30T05:33:38;10.05;;;5.43;;
22094;SDS011;24083;55.670;37.568;2023-01-30T05:36:11;10.07;;;5.88;;
22094;SDS011;24083;55.670;37.568;2023-01-30T05:38:38;10.70;;;6.22;;
22094;SDS011;24083;55.670;37.568;2023-01-30T05:41:04;11.95;;;5.60;;
22094;SDS011;24083;55.670;37.568;2023-01-30T05:43:30;9.27;;;5.88;;
22094;SDS011;24083;55.670;37.568;2023-01-30T05:45:59;8.82;;;5.28;;
22094;SDS011;24083;55.670;37.568;2023-01-30T05:48:25;5.88;;;3.38;;
22094;SDS011;24083;55.670;37.568;2023-01-30T05:50:51;7.75;;;4.25;;
22094;SDS011;24083;55.670;37.568;2023-01-30T05:53:25;8.95;;;5.63;;
22094;SDS011;24083;55.670;37.568;2023-01-30T05:55:57;8.88;;;4.30;;
22094;SDS011;24083;55.670;37.568;2023-01-30T05:58:25;10.70;;;6.35;;
22094;SDS011;24083;55.670;37.568;2023-01-30T06:00:51;14.60;;;7.03;;
22094;SDS011;24083;55.670;37.568;2023-01-30T06:03:18;10.38;;;6.43;;
22094;SDS011;24083;55.670;37.568;2023-01-30T06:08:35;8.80;;;4.85;;
22094;SDS011;24083;55.670;37.568;2023-01-30T06:11:05;10.48;;;5.95;;
22094;SDS011;24083;55.670;37.568;2023-01-30T06:13:33;10.02;;;5.40;;
22094;SDS011;24083;55.670;37.568;2023-01-30T06:15:59;11.02;;;5.65;;
22094;SDS011;24083;55.670;37.568;2023-01-30T06:18:25;11.82;;;4.80;;
22094;SDS011;24083;55.670;37.568;2023-01-30T06:20:53;10.60;;;5.72;;
22094;SDS011;24083;55.670;37.568;2023-01-30T06:23:20;9.13;;;4.65;;
22094;SDS011;24083;55.670;37.568;2023-01-30T06:25:51;12.88;;;6.78;;
22094;SDS011;24083;55.670;37.568;2023-01-30T06:28:19;11.35;;;7.13;;
22094;SDS011;24083;55.670;37.568;2023-01-30T06:44:49;10.18;;;5.63;;
22094;SDS011;24083;55.670;37.568;2023-01-30T06:47:15;8.60;;;5.05;;
22094;SDS011;24083;55.670;37.568;2023-01-30T06:49:41;11.43;;;6.90;;
22094;SDS011;24083;55.670;37.568;2023-01-30T06:52:06;11.40;;;7.38;;
22094;SDS011;24083;55.670;37.568;2023-01-30T06:58:36;8.82;;;4.93;;
22094;SDS011;24083;55.670;37.568;2023-01-30T07:18:23;9.52;;;4.47;;
22094;SDS011;24083;55.670;37.568;2023-01-30T07:20:48;9.57;;;5.68;;
22094;SDS011;24083;55.670;37.568;2023-01-30T07:23:14;11.10;;;6.80;;
22094;SDS011;24083;55.670;37.568;2023-01-30T07:25:40;10.52;;;6.75;;
22094;SDS011;24083;55.670;37.568;2023-01-30T07:28:06;13.65;;;7.75;;
22094;SDS011;24083;55.670;37.568;2023-01-30T07:30:32;15.68;;;8.38;;
22094;SDS011;24083;55.670;37.568;2023-01-30T07:35:27;5.97;;;2.60;;
22094;SDS011;24083;55.670;37.568;2023-01-30T07:37:53;9.18;;;4.95;;
22094;SDS011;24083;55.670;37.568;2023-01-30T07:40:19;11.52;;;6.55;;
22094;SDS011;24083;55.670;37.568;2023-01-30T07:45:46;11.38;;;6.68;;
22094;SDS011;24083;55.670;37.568;2023-01-30T07:48:13;8.40;;;5.82;;
22094;SDS011;24083;55.670;37.568;2023-01-30T07:50:39;13.50;;;7.13;;
22094;SDS011;24083;55.670;37.568;2023-01-30T07:53:15;11.80;;;7.22;;
22094;SDS011;24083;55.670;37.568;2023-01-30T08:13:18;12.18;;;6.55;;
22094;SDS011;24083;55.670;37.568;2023-01-30T08:33:04;9.43;;;5.18;;
22094;SDS011;24083;55.670;37.568;2023-01-30T08:35:29;10.75;;;6.32;;
22094;SDS011;24083;55.670;37.568;2023-01-30T08:37:55;8.13;;;4.97;;
22094;SDS011;24083;55.670;37.568;2023-01-30T08:40:21;11.43;;;5.90;;
22094;SDS011;24083;55.670;37.568;2023-01-30T08:42:47;10.57;;;5.72;;
22094;SDS011;24083;55.670;37.568;2023-01-30T08:45:14;10.38;;;5.57;;
22094;SDS011;24083;55.670;37.568;2023-01-30T08:47:41;10.68;;;4.70;;
22094;SDS011;24083;55.670;37.568;2023-01-30T08:50:07;8.98;;;4.93;;
22094;SDS011;24083;55.670;37.568;2023-01-30T08:58:13;12.20;;;5.78;;
22094;SDS011;24083;55.670;37.568;2023-01-30T09:00:39;11.35;;;5.50;;
22094;SDS011;24083;55.670;37.568;2023-01-30T09:03:08;12.88;;;7.60;;
22094;SDS011;24083;55.670;37.568;2023-01-30T09:05:40;7.80;;;4.53;;
22094;SDS011;24083;55.670;37.568;2023-01-30T09:08:06;7.97;;;4.30;;
22094;SDS011;24083;55.670;37.568;2023-01-30T09:10:31;11.48;;;4.90;;
22094;SDS011;24083;55.670;37.568;2023-01-30T09:12:57;9.45;;;4.97;;
22094;SDS011;24083;55.670;37.568;2023-01-30T09:15:23;13.70;;;7.85;;
22094;SDS011;24083;55.670;37.568;2023-01-30T09:17:50;11.77;;;6.97;;
22094;SDS011;24083;55.670;37.568;2023-01-30T09:20:15;6.75;;;4.00;;
22094;SDS011;24083;55.670;37.568;2023-01-30T09:22:45;15.27;;;7.00;;
22094;SDS011;24083;55.670;37.568;2023-01-30T09:25:11;6.43;;;3.45;;
22094;SDS011;24083;55.670;37.568;2023-01-30T09:27:40;13.23;;;7.13;;
22094;SDS011;24083;55.670;37.568;2023-01-30T09:30:10;9.68;;;6.03;;
22094;SDS011;24083;55.670;37.568;2023-01-30T09:32:36;8.02;;;4.38;;
22094;SDS011;24083;55.670;37.568;2023-01-30T09:35:02;8.85;;;4.38;;
22094;SDS011;24083;55.670;37.568;2023-01-30T09:37:30;10.13;;;6.07;;
22094;SDS011;24083;55.670;37.568;2023-01-30T09:39:56;10.45;;;6.07;;
22094;SDS011;24083;55.670;37.568;2023-01-30T09:42:42;11.70;;;7.00;;
22094;SDS011;24083;55.670;37.568;2023-01-30T09:53:23;7.63;;;4.05;;
22094;SDS011;24083;55.670;37.568;2023-01-30T09:55:54;8.52;;;5.38;;
22094;SDS011;24083;55.670;37.568;2023-01-30T09:58:40;11.68;;;6.93;;
22094;SDS011;24083;55.670;37.568;2023-01-30T10:01:10;6.45;;;3.08;;
22094;SDS011;24083;55.670;37.568;2023-01-30T10:03:41;10.15;;;5.07;;
22094;SDS011;24083;55.670;37.568;2023-01-30T10:06:12;11.00;;;6.07;;
22094;SDS011;24083;55.670;37.568;2023-01-30T10:11:27;7.38;;;3.75;;
22094;SDS011;24083;55.670;37.568;2023-01-30T10:19:14;10.13;;;6.10;;
22094;SDS011;24083;55.670;37.568;2023-01-30T10:31:57;10.80;;;5.93;;
22094;SDS011;24083;55.670;37.568;2023-01-30T10:34:33;8.35;;;4.80;;
22094;SDS011;24083;55.670;37.568;2023-01-30T10:37:21;6.50;;;3.78;;
22094;SDS011;24083;55.670;37.568;2023-01-30T10:40:03;10.25;;;7.25;;
22094;SDS011;24083;55.670;37.568;2023-01-30T10:42:33;8.85;;;5.60;;
22094;SDS011;24083;55.670;37.568;2023-01-30T10:45:07;9.70;;;5.85;;
22094;SDS011;24083;55.670;37.568;2023-01-30T10:50:27;11.75;;;7.20;;
22094;SDS011;24083;55.670;37.568;2023-01-30T10:53:14;7.68;;;4.95;;
22094;SDS011;24083;55.670;37.568;2023-01-30T11:12:38;10.57;;;5.63;;
22094;SDS011;24083;55.670;37.568;2023-01-30T11:15:05;12.23;;;6.03;;
22094;SDS011;24083;55.670;37.568;2023-01-30T11:17:40;10.93;;;6.25;;
22094;SDS011;24083;55.670;37.568;2023-01-30T11:34:42;11.45;;;7.30;;
22094;SDS011;24083;55.670;37.568;2023-01-30T11:47:21;8.20;;;4.20;;
22094;SDS011;24083;55.670;37.568;2023-01-30T11:49:47;8.45;;;5.05;;
22094;SDS011;24083;55.670;37.568;2023-01-30T11:52:18;9.27;;;5.82;;
22094;SDS011;24083;55.670;37.568;2023-01-30T11:54:46;4.68;;;2.58;;
22094;SDS011;24083;55.670;37.568;2023-01-30T11:57:14;8.82;;;5.85;;
22094;SDS011;24083;55.670;37.568;2023-01-30T12:04:45;10.38;;;6.38;;
22094;SDS011;24083;55.670;37.568;2023-01-30T12:12:33;7.07;;;4.13;;
22094;SDS011;24083;55.670;37.568;2023-01-30T12:58:57;6.43;;;4.55;;
22094;SDS011;24083;55.670;37.568;2023-01-30T13:11:59;8.10;;;5.07;;
22094;SDS011;24083;55.670;37.568;2023-01-30T13:14:32;9.10;;;5.72;;
22094;SDS011;24083;55.670;37.568;2023-01-30T13:20:46;6.38;;;4.00;;
22094;SDS011;24083;55.670;37.568;2023-01-30T13:28:49;3.75;;;2.28;;
22094;SDS011;24083;55.670;37.568;2023-01-30T13:33:46;9.65;;;5.45;;
22094;SDS011;24083;55.670;37.568;2023-01-30T13:36:23;8.57;;;5.55;;
22094;SDS011;24083;55.670;37.568;2023-01-30T13:38:58;4.35;;;2.83;;
22094;SDS011;24083;55.670;37.568;2023-01-30T13:41:24;8.90;;;5.20;;
22094;SDS011;24083;55.670;37.568;2023-01-30T13:43:54;9.18;;;5.72;;
22094;SDS011;24083;55.670;37.568;2023-01-30T13:46:25;8.75;;;5.72;;
22094;SDS011;24083;55.670;37.568;2023-01-30T13:53:49;8.48;;;4.63;;
22094;SDS011;24083;55.670;37.568;2023-01-30T13:56:33;8.73;;;5.45;;
22094;SDS011;24083;55.670;37.568;2023-01-30T14:10:15;7.97;;;4.22;;
22094;SDS011;24083;55.670;37.568;2023-01-30T14:18:05;5.60;;;4.00;;
22094;SDS011;24083;55.670;37.568;2023-01-30T14:22:58;5.43;;;2.47;;
22094;SDS011;24083;55.670;37.568;2023-01-30T14:32:58;4.82;;;3.75;;
22094;SDS011;24083;55.670;37.568;2023-01-30T14:35:26;4.32;;;2.90;;
22094;SDS011;24083;55.670;37.568;2023-01-30T14:53:50;5.38;;;3.70;;
22094;SDS011;24083;55.670;37.568;2023-01-30T14:56:16;5.13;;;2.88;;
22094;SDS011;24083;55.670;37.568;2023-01-30T14:58:50;4.72;;;3.03;;
22094;SDS011;24083;55.670;37.568;2023-01-30T15:01:17;4.50;;;2.65;;
22094;SDS011;24083;55.670;37.568;2023-01-30T15:03:45;5.70;;;3.35;;
22094;SDS011;24083;55.670;37.568;2023-01-30T15:06:13;4.07;;;2.65;;
22094;SDS011;24083;55.670;37.568;2023-01-30T15:08:39;7.95;;;3.95;;
22094;SDS011;24083;55.670;37.568;2023-01-30T15:11:16;5.00;;;3.20;;
22094;SDS011;24083;55.670;37.568;2023-01-30T15:24:42;4.40;;;3.10;;
22094;SDS011;24083;55.670;37.568;2023-01-30T15:27:23;4.78;;;2.40;;
22094;SDS011;24083;55.670;37.568;2023-01-30T15:32:25;2.97;;;2.05;;
22094;SDS011;24083;55.670;37.568;2023-01-30T15:35:00;6.70;;;3.67;;
22094;SDS011;24083;55.670;37.568;2023-01-30T15:42:48;4.45;;;2.92;;
22094;SDS011;24083;55.670;37.568;2023-01-30T15:50:33;3.28;;;2.03;;
22094;SDS011;24083;55.670;37.568;2023-01-30T15:55:50;5.43;;;3.42;;
22094;SDS011;24083;55.670;37.568;2023-01-30T15:58:16;5.80;;;3.08;;
22094;SDS011;24083;55.670;37.568;2023-01-30T16:00:59;4.10;;;2.80;;
22094;SDS011;24083;55.670;37.568;2023-01-30T16:03:30;4.70;;;2.92;;
22094;SDS011;24083;55.670;37.568;2023-01-30T16:05:57;4.28;;;2.65;;
22094;SDS011;24083;55.670;37.568;2023-01-30T16:11:44;5.22;;;3.25;;
22094;SDS011;24083;55.670;37.568;2023-01-30T16:22:14;7.05;;;2.90;;
22094;SDS011;24083;55.670;37.568;2023-01-30T16:24:42;4.30;;;2.65;;
22094;SDS011;24083;55.670;37.568;2023-01-30T16:32:27;4.57;;;3.00;;
22094;SDS011;24083;55.670;37.568;2023-01-30T16:41:36;5.38;;;2.97;;
22094;SDS011;24083;55.670;37.568;2023-01-30T16:54:58;3.63;;;1.80;;
22094;SDS011;24083;55.670;37.568;2023-01-30T16:57:37;4.60;;;2.38;;
22094;SDS011;24083;55.670;37.568;2023-01-30T17:02:33;4.32;;;2.40;;
22094;SDS011;24083;55.670;37.568;2023-01-30T17:05:19;4.35;;;2.88;;
22094;SDS011;24083;55.670;37.568;2023-01-30T17:07:45;4.35;;;1.70;;
22094;SDS011;24083;55.670;37.568;2023-01-30T17:12:53;3.20;;;1.98;;
22094;SDS011;24083;55.670;37.568;2023-01-30T17:18:52;2.33;;;1.80;;
22094;SDS011;24083;55.670;37.568;2023-01-30T17:21:57;2.78;;;1.70;;
22094;SDS011;24083;55.670;37.568;2023-01-30T17:24:24;3.20;;;2.30;;
22094;SDS011;24083;55.670;37.568;2023-01-30T17:26:57;2.38;;;1.67;;
22094;SDS011;24083;55.670;37.568;2023-01-30T17:29:25;2.93;;;2.03;;
22094;SDS011;24083;55.670;37.568;2023-01-30T17:31:59;4.53;;;2.70;;
22094;SDS011;24083;55.670;37.568;2023-01-30T17:34:25;3.22;;;1.85;;
22094;SDS011;24083;55.670;37.568;2023-01-30T17:36:52;5.22;;;1.77;;
22094;SDS011;24083;55.670;37.568;2023-01-30T17:39:21;3.30;;;2.35;;
22094;SDS011;24083;55.670;37.568;2023-01-30T17:41:54;2.17;;;1.60;;
22094;SDS011;24083;55.670;37.568;2023-01-30T17:44:19;3.72;;;2.45;;
22094;SDS011;24083;55.670;37.568;2023-01-30T17:46:47;4.75;;;2.28;;
22094;SDS011;24083;55.670;37.568;2023-01-30T17:49:19;2.42;;;1.73;;
22094;SDS011;24083;55.670;37.568;2023-01-30T17:51:45;2.00;;;1.48;;
22094;SDS011;24083;55.670;37.568;2023-01-30T17:54:11;2.75;;;1.30;;
22094;SDS011;24083;55.670;37.568;2023-01-30T17:56:38;2.50;;;1.40;;
22094;SDS011;24083;55.670;37.568;2023-01-30T17:59:06;3.20;;;2.30;;
22094;SDS011;24083;55.670;37.568;2023-01-30T18:01:59;3.35;;;1.75;;
22094;SDS011;24083;55.670;37.568;2023-01-30T18:04:24;3.65;;;2.50;;
22094;SDS011;24083;55.670;37.568;2023-01-30T18:06:54;2.90;;;2.30;;
22094;SDS011;24083;55.670;37.568;2023-01-30T18:09:21;4.90;;;2.40;;
22094;SDS011;24083;55.670;37.568;2023-01-30T18:11:47;3.17;;;2.25;;
22094;SDS011;24083;55.670;37.568;2023-01-30T18:14:16;3.13;;;2.15;;
22094;SDS011;24083;55.670;37.568;2023-01-30T18:16:45;2.95;;;1.90;;
22094;SDS011;24083;55.670;37.568;2023-01-30T18:19:13;3.80;;;2.40;;
22094;SDS011;24083;55.670;37.568;2023-01-30T18:21:39;4.32;;;2.70;;
22094;SDS011;24083;55.670;37.568;2023-01-30T18:24:14;2.67;;;2.00;;
22094;SDS011;24083;55.670;37.568;2023-01-30T18:26:40;3.22;;;2.15;;
22094;SDS011;24083;55.670;37.568;2023-01-30T18:29:06;5.78;;;2.65;;
22094;SDS011;24083;55.670;37.568;2023-01-30T18:31:33;2.80;;;1.93;;
22094;SDS011;24083;55.670;37.568;2023-01-30T18:34:06;5.95;;;2.13;;
22094;SDS011;24083;55.670;37.568;2023-01-30T18:36:32;2.33;;;1.63;;
22094;SDS011;24083;55.670;37.568;2023-01-30T18:38:58;3.42;;;2.53;;
22094;SDS011;24083;55.670;37.568;2023-01-30T18:41:24;6.18;;;2.45;;
22094;SDS011;24083;55.670;37.568;2023-01-30T18:43:57;2.70;;;1.75;;
22094;SDS011;24083;55.670;37.568;2023-01-30T18:46:23;3.60;;;2.25;;
22094;SDS011;24083;55.670;37.568;2023-01-30T18:48:49;3.47;;;2.08;;
22094;SDS011;24083;55.670;37.568;2023-01-30T18:51:21;3.38;;;2.90;;
22094;SDS011;24083;55.670;37.568;2023-01-30T18:53:48;3.05;;;1.90;;
22094;SDS011;24083;55.670;37.568;2023-01-30T18:56:16;4.13;;;2.40;;
22094;SDS011;24083;55.670;37.568;2023-01-30T18:58:41;3.13;;;1.73;;
22094;SDS011;24083;55.670;37.568;2023-01-30T19:01:11;4.43;;;2.90;;
22094;SDS011;24083;55.670;37.568;2023-01-30T19:03:42;3.10;;;1.88;;
22094;SDS011;24083;55.670;37.568;2023-01-30T19:06:09;2.10;;;1.20;;
22094;SDS011;24083;55.670;37.568;2023-01-30T19:08:35;5.22;;;2.60;;
22094;SDS011;24083;55.670;37.568;2023-01-30T19:11:02;3.67;;;2.50;;
22094;SDS011;24083;55.670;37.568;2023-01-30T19:13:53;2.95;;;2.05;;
22094;SDS011;24083;55.670;37.568;2023-01-30T19:16:20;3.47;;;2.28;;
22094;SDS011;24083;55.670;37.568;2023-01-30T19:18:45;3.85;;;2.00;;
22094;SDS011;24083;55.670;37.568;2023-01-30T19:21:11;2.58;;;1.83;;
22094;SDS011;24083;55.670;37.568;2023-01-30T19:23:37;3.03;;;1.80;;
22094;SDS011;24083;55.670;37.568;2023-01-30T19:26:02;2.30;;;1.27;;
22094;SDS011;24083;55.670;37.568;2023-01-30T19:28:28;3.40;;;2.35;;
22094;SDS011;24083;55.670;37.568;2023-01-30T19:30:57;3.42;;;1.73;;
22094;SDS011;24083;55.670;37.568;2023-01-30T19:33:25;1.83;;;1.42;;
22094;SDS011;24083;55.670;37.568;2023-01-30T19:35:51;3.45;;;1.85;;
22094;SDS011;24083;55.670;37.568;2023-01-30T19:38:16;4.35;;;2.53;;
22094;SDS011;24083;55.670;37.568;2023-01-30T19:40:43;1.77;;;1.45;;
22094;SDS011;24083;55.670;37.568;2023-01-30T19:43:09;4.45;;;2.38;;
22094;SDS011;24083;55.670;37.568;2023-01-30T19:45:42;4.97;;;2.60;;
22094;SDS011;24083;55.670;37.568;2023-01-30T19:48:08;4.95;;;2.92;;
22094;SDS011;24083;55.670;37.568;2023-01-30T19:50:34;3.78;;;2.70;;
22094;SDS011;24083;55.670;37.568;2023-01-30T19:53:00;3.22;;;2.15;;
22094;SDS011;24083;55.670;37.568;2023-01-30T19:55:26;4.40;;;2.40;;
22094;SDS011;24083;55.670;37.568;2023-01-30T19:57:51;4.22;;;1.98;;
22094;SDS011;24083;55.670;37.568;2023-01-30T20:00:17;3.55;;;2.10;;
22094;SDS011;24083;55.670;37.568;2023-01-30T20:12:13;3.63;;;2.53;;
22094;SDS011;24083;55.670;37.568;2023-01-30T20:14:39;3.20;;;2.15;;
22094;SDS011;24083;55.670;37.568;2023-01-30T20:19:57;2.75;;;1.83;;
22094;SDS011;24083;55.670;37.568;2023-01-30T20:22:22;4.23;;;2.67;;
22094;SDS011;24083;55.670;37.568;2023-01-30T20:24:48;3.65;;;2.47;;
22094;SDS011;24083;55.670;37.568;2023-01-30T20:27:14;2.35;;;1.92;;
22094;SDS011;24083;55.670;37.568;2023-01-30T20:29:40;3.63;;;2.45;;
22094;SDS011;24083;55.670;37.568;2023-01-30T20:32:09;3.63;;;2.53;;
22094;SDS011;24083;55.670;37.568;2023-01-30T20:34:45;4.68;;;3.13;;
22094;SDS011;24083;55.670;37.568;2023-01-30T20:37:11;2.55;;;1.98;;
22094;SDS011;24083;55.670;37.568;2023-01-30T20:39:36;3.92;;;2.53;;
22094;SDS011;24083;55.670;37.568;2023-01-30T20:42:02;2.88;;;1.90;;
22094;SDS011;24083;55.670;37.568;2023-01-30T20:44:28;3.20;;;2.10;;
22094;SDS011;24083;55.670;37.568;2023-01-30T20:46:53;3.85;;;2.38;;
22094;SDS011;24083;55.670;37.568;2023-01-30T20:49:21;3.47;;;2.53;;
22094;SDS011;24083;55.670;37.568;2023-01-30T20:51:53;5.32;;;2.42;;
22094;SDS011;24083;55.670;37.568;2023-01-30T20:54:22;4.10;;;2.47;;
22094;SDS011;24083;55.670;37.568;2023-01-30T20:56:50;5.53;;;1.90;;
22094;SDS011;24083;55.670;37.568;2023-01-30T20:59:17;3.88;;;2.70;;
22094;SDS011;24083;55.670;37.568;2023-01-30T21:01:43;4.50;;;3.00;;
22094;SDS011;24083;55.670;37.568;2023-01-30T21:04:10;3.28;;;1.98;;
22094;SDS011;24083;55.670;37.568;2023-01-30T21:06:37;3.15;;;2.45;;
22094;SDS011;24083;55.670;37.568;2023-01-30T21:09:04;4.65;;;2.55;;
22094;SDS011;24083;55.670;37.568;2023-01-30T21:11:30;2.47;;;1.85;;
22094;SDS011;24083;55.670;37.568;2023-01-30T21:13:59;2.90;;;1.48;;
22094;SDS011;24083;55.670;37.568;2023-01-30T21:19:17;4.40;;;2.40;;
22094;SDS011;24083;55.670;37.568;2023-01-30T21:21:47;4.20;;;2.40;;
22094;SDS011;24083;55.670;37.568;2023-01-30T21:30:04;3.97;;;2.58;;
22094;SDS011;24083;55.670;37.568;2023-01-30T21:32:30;3.78;;;2.20;;
22094;SDS011;24083;55.670;37.568;2023-01-30T21:35:01;4.05;;;2.55;;
22094;SDS011;24083;55.670;37.568;2023-01-30T21:37:28;6.45;;;3.47;;
22094;SDS011;24083;55.670;37.568;2023-01-30T21:40:12;6.07;;;2.85;;
22094;SDS011;24083;55.670;37.568;2023-01-30T21:45:48;4.32;;;3.00;;
22094;SDS011;24083;55.670;37.568;2023-01-30T21:48:15;3.28;;;1.88;;
22094;SDS011;24083;55.670;37.568;2023-01-30T21:50:40;4.53;;;2.97;;
22094;SDS011;24083;55.670;37.568;2023-01-30T22:15:48;3.88;;;2.90;;
22094;SDS011;24083;55.670;37.568;2023-01-30T22:18:13;6.05;;;3.38;;
22094;SDS011;24083;55.670;37.568;2023-01-30T22:20:39;3.08;;;1.90;;
22094;SDS011;24083;55.670;37.568;2023-01-30T22:23:05;3.95;;;2.33;;
22094;SDS011;24083;55.670;37.568;2023-01-30T22:25:30;4.88;;;3.28;;